EKVG

Vagar

Airport
ICAO code
EKVG
Summary
ICAO Region
EUR
ICAO Territory
Location

Sørvágur, Faroe Islands,

Coordinates
62° 3' 49" N , 7° 16' 37" W
KCC
Cfc
Airport WX
Volcanic Ash
Metar
Observation
EKVG 082020Z AUTO 21007KT 9999 BKN003/// BKN074/// 11/11 Q1019 RMK FEW012/// BKN039/// BKN075/// WIND SKEID 24006KT 180V310
Station
Soervaag / Vagar
Date/Time
2022-08-08 20:20:00
Wind direction
210°
Wind speed
07 kts
Lowest cloud amount
broken clouds
Temperature
11°C
Dew point
11°C
Humidity
100%
QNH
1019 hPa
Weather condition
n/a

Description

Vágar Airport is the only airport in the Faroe Islands, a self-governing territory of Denmark and is located 1 nm east of Sørvágur.

Climatology

Subarctic oceanic climate (Köppen climate classification Cfc) moderated by North Atlantic Current; long, mild, windy winters; short, cool summers.

Runways

Designator Length Width Surface Rops
13/31 1799 30 ASP No/No

Airport map

Aerial View

SKYbrary Partners:

Safety knowledge contributed by: